ZRH weather

Z├╝rich Airport
Zurich, Canton of Zurich, Switzerland

Public forecast

Using degrees Celsius for public forecast. Weather courtesy of forecast.io.

METAR (pilot weather report)

Retrieved 2019/02/17 14:20 UTC (8 minutes ago):

LSZH 171420Z 16003KT 140V210 CAVOK 14/M01 Q1024 NOSIG

TAF (pilot weather forecast)

Retrieved 2019/02/17 15:33 UTC (0 seconds ago):

TAF LSZH 171425Z 1715/1821 VRB03KT CAVOK TX15/1715Z TNM04/1805Z TX14/1815Z BECMG 1802/1805 7000 NSC PROB30 1805/1808 4000 MIFG BECMG 1808/1811 CAVOK